Time;durP1;ratioP1;P1;durP2;ratioP2;P2;SDS_P1;SDS_P2;PMS_P1;PMS_P2;Temp;Humidity;BMP_temperature;BMP_pressure;BME280_temperature;BME280_humidity;BME280_pressure;Samples;Min_cycle;Max_cycle;Signal;HPM_P1;HPM_P2
2023/05/13 00:00:16;;;;;;;10.93;7.88;;;;;;;;;;4992180;28;20089;-74
2023/05/13 00:02:42;;;;;;;13.43;7.97;;;;;;;;;;5009511;28;20030;-74
2023/05/13 00:05:08;;;;;;;12.43;7.57;;;;;;;;;;5013122;28;20025;-74
2023/05/13 00:07:35;;;;;;;14.63;8.50;;;;;;;;;;5013051;28;20026;-74
2023/05/13 00:10:01;;;;;;;13.70;7.90;;;;;;;;;;5013193;28;20476;-74
2023/05/13 00:12:27;;;;;;;9.60;7.88;;;;;;;;;;4995104;28;20030;-74
2023/05/13 00:14:53;;;;;;;13.18;8.40;;;;;;;;;;5008560;28;20041;-73
2023/05/13 00:17:18;;;;;;;10.60;8.13;;;;;;;;;;4994890;28;20018;-73
2023/05/13 00:19:44;;;;;;;9.90;7.22;;;;;;;;;;5013286;28;20026;-73
2023/05/13 00:22:11;;;;;;;10.10;8.48;;;;;;;;;;5013174;28;20080;-73
2023/05/13 00:24:37;;;;;;;11.10;7.60;;;;;;;;;;4994261;28;20018;-73
2023/05/13 00:27:03;;;;;;;10.95;8.10;;;;;;;;;;5012666;28;20026;-73
2023/05/13 00:29:30;;;;;;;9.27;6.95;;;;;;;;;;4995074;28;20026;-73
2023/05/13 00:31:56;;;;;;;8.23;6.40;;;;;;;;;;5012981;28;20025;-74
2023/05/13 00:34:23;;;;;;;11.55;7.63;;;;;;;;;;5012655;28;20022;-73
2023/05/13 00:36:49;;;;;;;7.90;6.55;;;;;;;;;;5012918;28;20026;-74
2023/05/13 00:39:15;;;;;;;9.80;6.88;;;;;;;;;;5011920;28;20030;-74
2023/05/13 00:41:41;;;;;;;8.63;6.57;;;;;;;;;;5012865;28;20107;-74
2023/05/13 00:44:07;;;;;;;9.05;6.60;;;;;;;;;;5042183;23;20073;-73
2023/05/13 00:46:33;;;;;;;7.63;5.85;;;;;;;;;;5012724;28;20101;-74
2023/05/13 00:49:00;;;;;;;8.75;6.35;;;;;;;;;;5011783;28;20025;-73
2023/05/13 00:51:26;;;;;;;12.57;6.80;;;;;;;;;;5012890;28;20033;-74
2023/05/13 00:53:52;;;;;;;7.32;5.80;;;;;;;;;;5012424;28;20396;-75
2023/05/13 00:56:20;;;;;;;7.95;5.93;;;;;;;;;;5010764;28;20124;-75
2023/05/13 00:58:46;;;;;;;7.70;6.40;;;;;;;;;;4994411;28;20034;-74
2023/05/13 01:01:25;;;;;;;9.32;6.80;;;;;;;;;;5015186;28;20033;-74
2023/05/13 01:04:09;;;;;;;8.68;6.65;;;;;;;;;;5033564;28;20057;-74
2023/05/13 01:06:50;;;;;;;14.13;7.47;;;;;;;;;;5033091;28;20032;-74
2023/05/13 01:09:16;;;;;;;;;;;;;;;;;;5012461;28;20029;-74
2023/05/13 01:11:43;;;;;;;8.98;6.70;;;;;;;;;;5012149;28;19971;-74
2023/05/13 01:14:12;;;;;;;13.80;7.13;;;;;;;;;;4994191;28;20044;-74
2023/05/13 01:16:58;;;;;;;9.93;6.55;;;;;;;;;;5011931;28;20034;-74
2023/05/13 01:19:30;;;;;;;7.25;6.45;;;;;;;;;;5011584;28;20405;-73
2023/05/13 01:21:56;;;;;;;9.65;6.63;;;;;;;;;;5011692;28;20603;-74
2023/05/13 01:24:22;;;;;;;8.45;6.57;;;;;;;;;;5011732;28;20025;-74
2023/05/13 01:26:48;;;;;;;7.45;6.30;;;;;;;;;;5011778;28;20029;-73
2023/05/13 01:29:14;;;;;;;11.48;7.97;;;;;;;;;;5011114;28;20401;-74
2023/05/13 01:31:41;;;;;;;8.73;7.57;;;;;;;;;;5011916;28;20014;-73
2023/05/13 01:34:09;;;;;;;9.07;7.47;;;;;;;;;;5011909;28;20033;-74
2023/05/13 01:36:35;;;;;;;9.90;6.72;;;;;;;;;;5012179;28;20022;-74
2023/05/13 01:39:02;;;;;;;10.60;7.78;;;;;;;;;;5018353;28;20029;-74
2023/05/13 01:41:28;;;;;;;10.00;7.97;;;;;;;;;;5031796;28;20036;-73
2023/05/13 01:43:54;;;;;;;9.02;7.28;;;;;;;;;;5032048;28;20037;-73
2023/05/13 01:46:20;;;;;;;13.10;7.47;;;;;;;;;;5031801;28;20029;-74
2023/05/13 01:48:46;;;;;;;10.15;7.88;;;;;;;;;;5012662;28;20029;-74
2023/05/13 01:51:12;;;;;;;9.85;6.65;;;;;;;;;;5031235;28;20040;-73
2023/05/13 01:53:38;;;;;;;9.27;6.95;;;;;;;;;;5015167;28;20030;-73
2023/05/13 01:56:04;;;;;;;8.90;6.78;;;;;;;;;;4993640;28;20103;-73
2023/05/13 01:58:30;;;;;;;7.63;5.57;;;;;;;;;;5010546;28;20030;-73
2023/05/13 02:00:56;;;;;;;9.45;6.88;;;;;;;;;;5011316;28;20026;-74
2023/05/13 02:03:22;;;;;;;7.97;6.60;;;;;;;;;;5011187;28;20099;-73
2023/05/13 02:05:48;;;;;;;11.13;6.10;;;;;;;;;;4993575;28;20053;-74
2023/05/13 02:08:14;;;;;;;6.85;5.85;;;;;;;;;;5010375;28;20045;-74
2023/05/13 02:10:40;;;;;;;8.10;5.80;;;;;;;;;;5011495;28;20080;-74
2023/05/13 02:13:06;;;;;;;7.25;5.72;;;;;;;;;;5011431;28;20021;-73
2023/05/13 02:15:32;;;;;;;9.88;6.60;;;;;;;;;;5011225;28;20030;-73
2023/05/13 02:17:58;;;;;;;7.43;5.93;;;;;;;;;;4996309;28;20084;-73
2023/05/13 02:20:25;;;;;;;6.90;5.57;;;;;;;;;;5015368;28;20088;-73
2023/05/13 02:22:51;;;;;;;7.63;5.65;;;;;;;;;;5014978;28;20096;-74
2023/05/13 02:25:17;;;;;;;7.43;5.38;;;;;;;;;;5015175;28;20415;-73
2023/05/13 02:27:43;;;;;;;6.55;4.82;;;;;;;;;;5014488;28;20028;-73
2023/05/13 02:30:09;;;;;;;9.57;5.90;;;;;;;;;;5015152;28;20121;-73
2023/05/13 02:32:35;;;;;;;8.07;5.35;;;;;;;;;;5015214;28;20526;-75
2023/05/13 02:35:01;;;;;;;8.27;5.47;;;;;;;;;;5014915;28;20607;-74
2023/05/13 02:37:27;;;;;;;9.63;6.15;;;;;;;;;;4996512;28;20128;-74
2023/05/13 02:39:53;;;;;;;8.60;6.63;;;;;;;;;;5014895;28;20153;-74
2023/05/13 02:42:19;;;;;;;9.75;5.95;;;;;;;;;;5015029;28;20029;-74
2023/05/13 02:44:46;;;;;;;9.10;7.25;;;;;;;;;;5014683;28;20037;-73
2023/05/13 02:47:12;;;;;;;8.23;6.13;;;;;;;;;;5014023;28;20026;-72
2023/05/13 02:49:38;;;;;;;6.28;5.57;;;;;;;;;;5014791;28;20101;-74
2023/05/13 02:52:04;;;;;;;7.88;6.07;;;;;;;;;;5014521;28;20022;-74
2023/05/13 02:54:30;;;;;;;7.80;6.13;;;;;;;;;;5014641;28;20022;-74
2023/05/13 02:56:56;;;;;;;6.88;5.88;;;;;;;;;;5014562;28;20112;-74
2023/05/13 02:59:22;;;;;;;8.25;6.30;;;;;;;;;;5014048;28;20026;-74
2023/05/13 03:01:48;;;;;;;8.07;5.85;;;;;;;;;;5012619;28;20036;-74
2023/05/13 03:04:14;;;;;;;9.13;5.88;;;;;;;;;;5014187;28;20026;-74
2023/05/13 03:06:40;;;;;;;9.98;6.82;;;;;;;;;;5014109;28;20036;-74
2023/05/13 03:09:06;;;;;;;11.05;6.30;;;;;;;;;;5013433;28;20502;-74
2023/05/13 03:11:32;;;;;;;8.70;5.78;;;;;;;;;;5017775;28;20022;-74
2023/05/13 03:13:58;;;;;;;9.90;6.22;;;;;;;;;;5022288;28;20656;-75
2023/05/13 03:16:24;;;;;;;8.75;6.68;;;;;;;;;;5017523;28;20026;-73
2023/05/13 03:18:50;;;;;;;8.88;6.25;;;;;;;;;;5013355;28;20026;-73
2023/05/13 03:21:16;;;;;;;10.90;5.63;;;;;;;;;;4996827;28;20595;-73
2023/05/13 03:23:42;;;;;;;11.23;6.68;;;;;;;;;;5014197;28;20558;-74
2023/05/13 03:26:08;;;;;;;7.75;6.00;;;;;;;;;;5013845;28;20029;-74
2023/05/13 03:28:34;;;;;;;7.28;5.65;;;;;;;;;;5013159;28;20030;-74
2023/05/13 03:31:00;;;;;;;7.15;6.00;;;;;;;;;;5013874;28;20029;-74
2023/05/13 03:33:28;;;;;;;9.63;6.35;;;;;;;;;;5013883;28;20096;-74
2023/05/13 03:35:54;;;;;;;8.60;6.03;;;;;;;;;;5013272;28;20496;-73
2023/05/13 03:38:20;;;;;;;8.98;5.88;;;;;;;;;;5013135;28;20156;-74
2023/05/13 03:40:46;;;;;;;7.32;5.63;;;;;;;;;;5013689;28;20121;-73
2023/05/13 03:43:12;;;;;;;7.97;5.88;;;;;;;;;;5012766;28;20038;-74
2023/05/13 03:45:38;;;;;;;6.80;4.93;;;;;;;;;;5011382;28;20030;-73
2023/05/13 03:48:04;;;;;;;8.95;5.57;;;;;;;;;;5012692;28;20061;-75
2023/05/13 03:50:31;;;;;;;6.78;5.50;;;;;;;;;;5013238;28;20496;-74
2023/05/13 03:52:57;;;;;;;8.23;5.38;;;;;;;;;;5013260;28;20065;-74
2023/05/13 03:55:23;;;;;;;6.45;5.50;;;;;;;;;;5013608;28;20026;-74
2023/05/13 03:57:49;;;;;;;5.80;4.25;;;;;;;;;;5012558;28;20022;-73
2023/05/13 04:00:15;;;;;;;6.38;4.47;;;;;;;;;;5013438;28;20036;-74
2023/05/13 04:02:41;;;;;;;7.03;4.35;;;;;;;;;;5015519;28;20073;-74
2023/05/13 04:05:08;;;;;;;7.68;4.53;;;;;;;;;;5019558;28;20121;-73
2023/05/13 04:07:34;;;;;;;8.60;4.40;;;;;;;;;;5014341;28;20023;-74
2023/05/13 04:10:00;;;;;;;3.97;3.55;;;;;;;;;;5013265;28;20030;-74
2023/05/13 04:12:26;;;;;;;5.10;3.88;;;;;;;;;;5013201;28;20369;-75
2023/05/13 04:14:52;;;;;;;6.07;3.72;;;;;;;;;;5013570;28;20069;-74
2023/05/13 04:17:18;;;;;;;8.05;3.83;;;;;;;;;;5012503;28;20168;-75
2023/05/13 04:19:44;;;;;;;4.63;3.30;;;;;;;;;;5002838;28;21129;-75
2023/05/13 04:22:10;;;;;;;5.07;3.50;;;;;;;;;;4993620;28;20034;-75
2023/05/13 04:24:36;;;;;;;5.15;3.40;;;;;;;;;;5012232;28;20508;-75
2023/05/13 04:27:02;;;;;;;3.50;3.20;;;;;;;;;;5012691;28;20026;-74
2023/05/13 04:29:28;;;;;;;4.28;3.03;;;;;;;;;;5012402;28;20022;-74
2023/05/13 04:31:54;;;;;;;5.03;3.67;;;;;;;;;;5012462;28;20097;-74
2023/05/13 04:34:20;;;;;;;6.15;3.22;;;;;;;;;;5012666;28;20033;-74
2023/05/13 04:36:47;;;;;;;5.80;3.72;;;;;;;;;;5012916;28;20440;-74
2023/05/13 04:39:13;;;;;;;4.30;3.70;;;;;;;;;;5011168;28;20033;-74
2023/05/13 04:41:40;;;;;;;4.32;3.45;;;;;;;;;;5012762;28;20030;-75
2023/05/13 04:44:06;;;;;;;4.80;3.08;;;;;;;;;;5012199;28;20038;-74
2023/05/13 04:46:32;;;;;;;4.38;3.35;;;;;;;;;;5012268;28;20045;-74
2023/05/13 04:48:58;;;;;;;4.28;3.22;;;;;;;;;;5011877;28;20104;-74
2023/05/13 04:51:24;;;;;;;10.20;4.00;;;;;;;;;;5012692;28;20210;-74
2023/05/13 04:53:50;;;;;;;6.13;3.55;;;;;;;;;;5012302;28;20404;-74
2023/05/13 04:56:16;;;;;;;6.18;3.10;;;;;;;;;;5012442;28;20026;-75
2023/05/13 04:58:42;;;;;;;3.42;3.05;;;;;;;;;;5011685;28;20033;-74
2023/05/13 05:01:08;;;;;;;5.35;3.42;;;;;;;;;;4994559;28;20026;-75
2023/05/13 05:03:34;;;;;;;3.75;2.83;;;;;;;;;;5012349;28;20026;-74
2023/05/13 05:06:00;;;;;;;3.28;2.97;;;;;;;;;;5012380;28;20551;-74
2023/05/13 05:08:27;;;;;;;4.05;3.40;;;;;;;;;;5011931;28;20084;-73
2023/05/13 05:10:53;;;;;;;6.05;3.45;;;;;;;;;;5012301;28;20041;-73
2023/05/13 05:13:19;;;;;;;7.68;3.38;;;;;;;;;;5011193;28;20038;-74
2023/05/13 05:15:45;;;;;;;4.55;3.20;;;;;;;;;;5010244;28;20028;-74
2023/05/13 05:18:12;;;;;;;5.15;3.33;;;;;;;;;;5009366;28;20026;-73
2023/05/13 05:20:38;;;;;;;3.97;3.15;;;;;;;;;;5010342;28;20500;-74
2023/05/13 05:23:06;;;;;;;6.28;3.35;;;;;;;;;;5010380;28;20530;-74
2023/05/13 05:25:32;;;;;;;6.10;3.65;;;;;;;;;;5010024;28;20408;-75
2023/05/13 05:27:58;;;;;;;7.20;4.15;;;;;;;;;;5009553;28;20097;-75
2023/05/13 05:30:24;;;;;;;5.25;3.70;;;;;;;;;;5011881;28;20040;-74
2023/05/13 05:32:50;;;;;;;4.40;3.50;;;;;;;;;;5011977;28;20045;-74
2023/05/13 05:35:18;;;;;;;6.15;3.05;;;;;;;;;;5011932;28;20145;-73
2023/05/13 05:37:44;;;;;;;3.40;2.75;;;;;;;;;;5011759;28;20014;-75
2023/05/13 05:40:10;;;;;;;7.85;3.47;;;;;;;;;;5012329;28;20056;-75
2023/05/13 05:42:36;;;;;;;3.45;3.00;;;;;;;;;;5011846;28;20153;-74
2023/05/13 05:45:03;;;;;;;4.13;2.90;;;;;;;;;;5010970;28;20602;-75
2023/05/13 05:47:29;;;;;;;4.07;3.30;;;;;;;;;;5011194;28;20447;-74
2023/05/13 05:49:55;;;;;;;6.82;3.53;;;;;;;;;;5011479;28;20032;-69
2023/05/13 05:52:21;;;;;;;7.03;3.17;;;;;;;;;;5011126;28;20039;-70
2023/05/13 05:54:47;;;;;;;3.63;2.90;;;;;;;;;;5009590;28;20052;-69
2023/05/13 05:57:13;;;;;;;3.88;3.22;;;;;;;;;;5008789;28;20472;-70
2023/05/13 05:59:39;;;;;;;4.13;3.10;;;;;;;;;;4999214;28;20034;-70
2023/05/13 06:02:05;;;;;;;10.52;3.15;;;;;;;;;;4997695;28;20030;-70
2023/05/13 06:04:31;;;;;;;4.18;3.08;;;;;;;;;;5007866;28;20068;-69
2023/05/13 06:06:57;;;;;;;3.90;3.15;;;;;;;;;;5007911;28;20439;-68
2023/05/13 06:09:23;;;;;;;4.63;3.42;;;;;;;;;;4991878;28;20484;-70
2023/05/13 06:11:49;;;;;;;3.45;2.53;;;;;;;;;;5011216;28;20187;-70
2023/05/13 06:14:16;;;;;;;6.47;3.50;;;;;;;;;;5011702;28;20045;-71
2023/05/13 06:16:42;;;;;;;3.15;2.75;;;;;;;;;;5007831;28;20579;-70
2023/05/13 06:19:08;;;;;;;5.03;2.97;;;;;;;;;;4991093;28;20109;-70
2023/05/13 06:21:34;;;;;;;5.05;2.80;;;;;;;;;;4991587;28;20081;-70
2023/05/13 06:24:01;;;;;;;3.92;2.97;;;;;;;;;;4991728;28;20032;-70
2023/05/13 06:26:28;;;;;;;7.78;3.08;;;;;;;;;;4973537;28;20030;-70
2023/05/13 06:28:54;;;;;;;3.13;2.42;;;26.80;35.90;;;;;;4990728;28;20022;-70
2023/05/13 06:31:19;;;;;;;2.95;2.20;;;27.40;33.30;;;;;;4993296;28;20105;-71
2023/05/13 06:33:45;;;;;;;6.57;3.20;;;27.40;33.50;;;;;;5010970;28;20164;-72
2023/05/13 06:36:11;;;;;;;4.72;2.95;;;28.10;31.50;;;;;;5010974;28;20022;-70
2023/05/13 06:38:37;;;;;;;2.90;2.70;;;;;;;;;;5011165;28;20110;-72
2023/05/13 06:41:05;;;;;;;7.85;3.13;;;;;;;;;;5012439;28;20077;-71
2023/05/13 06:43:31;;;;;;;3.95;3.22;;;;;;;;;;5020383;23;20038;-71
2023/05/13 06:45:57;;;;;;;3.72;2.90;;;;;;;;;;4991439;28;20034;-72
2023/05/13 06:48:23;;;;;;;7.60;3.25;;;;;;;;;;4990800;28;20030;-71
2023/05/13 06:50:48;;;;;;;3.92;2.53;;;26.70;33.90;;;;;;4973827;28;20058;-71
2023/05/13 06:53:14;;;;;;;3.28;2.80;;;27.30;35.60;;;;;;4991397;28;20112;-71
2023/05/13 06:55:42;;;;;;;4.40;2.63;;;27.40;32.80;;;;;;4991303;28;20042;-71
2023/05/13 06:58:09;;;;;;;3.67;3.30;;;27.90;31.10;;;;;;4990289;28;20539;-71
2023/05/13 07:00:38;;;;;;;4.40;2.88;;;;;;;;;;4991329;28;20034;-71
2023/05/13 07:03:05;;;;;;;3.75;3.40;;;;;;;;;;4993006;28;20077;-72
2023/05/13 07:05:31;;;;;;;5.35;3.30;;;;;;;;;;4994240;28;20085;-71
2023/05/13 07:07:58;;;;;;;3.80;3.00;;;;;;;;;;4992909;28;20072;-72
2023/05/13 07:10:24;;;;;;;3.42;2.70;;;;;;;;;;4994646;28;20384;-71
2023/05/13 07:12:50;;;;;;;4.15;3.58;;;;;;;;;;4994884;28;20026;-71
2023/05/13 07:15:16;;;;;;;5.03;2.83;;;;;;;;;;4994688;28;20535;-71
2023/05/13 07:17:42;;;;;;;3.15;2.55;;;;;;;;;;4981942;28;20481;-71
2023/05/13 07:20:08;;;;;;;6.15;2.80;;;26.60;35.20;;;;;;4975255;28;20053;-71
2023/05/13 07:22:35;;;;;;;3.90;2.50;;;;;;;;;;4973840;28;20106;-71
2023/05/13 07:25:00;;;;;;;2.75;2.08;;;26.70;34.50;;;;;;4974793;28;20023;-70
2023/05/13 07:27:26;;;;;;;4.82;2.45;;;27.50;34.00;;;;;;4974591;28;20473;-70
2023/05/13 07:29:52;;;;;;;4.10;2.25;;;28.00;32.80;;;;;;4975121;28;20503;-70
2023/05/13 07:32:17;;;;;;;3.90;2.80;;;28.30;33.00;;;;;;4979904;28;20097;-71
2023/05/13 07:34:43;;;;;;;3.88;2.13;;;29.10;31.10;;;;;;4994314;28;20469;-70
2023/05/13 07:37:09;;;;;;;3.78;2.20;;;29.70;30.00;;;;;;4993849;28;20026;-71
2023/05/13 07:39:35;;;;;;;7.20;2.60;;;30.50;28.10;;;;;;4994271;28;20037;-70
2023/05/13 07:43:26;;;;;;;3.55;2.70;;;30.70;27.90;;;;;;5086226;28;20364;-70
2023/05/13 07:45:52;;;;;;;6.23;2.23;;;;;;;;;;5067987;28;20028;-71
2023/05/13 07:48:18;;;;;;;7.57;2.60;;;28.70;31.00;;;;;;5083181;28;20029;-71
2023/05/13 07:50:44;;;;;;;8.35;2.30;;;29.50;31.60;;;;;;5083911;28;20051;-70
2023/05/13 07:53:11;;;;;;;3.25;2.53;;;30.00;28.30;;;;;;5067781;28;20035;-71
2023/05/13 07:55:36;;;;;;;3.50;2.58;;;29.10;29.30;;;;;;5068212;28;20108;-71
2023/05/13 07:58:02;;;;;;;3.20;2.45;;;28.80;31.20;;;;;;5067394;28;20111;-72
2023/05/13 08:00:28;;;;;;;4.60;2.33;;;;;;;;;;5068148;28;20092;-72
2023/05/13 08:02:54;;;;;;;4.13;2.17;;;;;;;;;;5068226;28;20530;-72
2023/05/13 08:05:21;;;;;;;2.95;2.58;;;;;;;;;;5083610;28;20434;-73
2023/05/13 08:07:47;;;;;;;3.65;2.97;;;;;;;;;;5065860;28;20083;-72
2023/05/13 08:10:13;;;;;;;3.50;2.20;;;;;;;;;;5081518;28;20021;-72
2023/05/13 08:12:39;;;;;;;5.53;2.75;;;;;;;;;;5066062;28;20509;-72
2023/05/13 08:15:06;;;;;;;3.88;2.13;;;;;;;;;;5065567;28;20068;-72
2023/05/13 08:17:32;;;;;;;5.82;2.58;;;;;;;;;;5056878;28;20033;-72
2023/05/13 08:19:58;;;;;;;3.08;2.60;;;;;;;;;;5045652;28;20025;-72
2023/05/13 08:22:25;;;;;;;2.47;2.28;;;;;;;;;;5046821;28;20114;-72
2023/05/13 08:24:51;;;;;;;2.83;2.53;;;;;;;;;;5047664;28;20052;-72
2023/05/13 08:27:17;;;;;;;5.75;2.65;;;;;;;;;;5045434;28;20033;-72
2023/05/13 08:29:43;;;;;;;2.58;2.10;;;;;;;;;;5047396;28;20017;-72
2023/05/13 08:32:09;;;;;;;2.20;2.00;;;;;;;;;;5047560;28;20041;-72
2023/05/13 08:34:35;;;;;;;2.35;2.13;;;;;;;;;;5047423;28;20459;-72
2023/05/13 08:37:01;;;;;;;4.88;2.50;;;;;;;;;;5046670;28;20029;-71
2023/05/13 08:39:28;;;;;;;2.75;2.42;;;;;;;;;;5047273;28;20025;-72
2023/05/13 08:41:56;;;;;;;3.65;2.38;;;;;;;;;;5047195;28;20033;-72
2023/05/13 08:44:27;;;;;;;5.03;2.40;;;;;;;;;;5047194;28;20446;-72
2023/05/13 08:46:59;;;;;;;3.58;2.08;;;;;;;;;;5046177;28;20043;-71
2023/05/13 08:49:25;;;;;;;4.05;2.25;;;;;;;;;;5045801;28;20025;-72
2023/05/13 08:51:51;;;;;;;3.15;2.40;;;;;;;;;;5046028;28;20136;-72
2023/05/13 08:54:18;;;;;;;3.50;2.20;;;;;;;;;;5036193;28;20029;-72
2023/05/13 08:56:44;;;;;;;4.45;2.58;;;;;;;;;;5033706;28;20068;-72
2023/05/13 08:59:10;;;;;;;4.13;2.30;;;;;;;;;;5032915;28;20487;-72
2023/05/13 09:01:36;;;;;;;3.90;2.28;;;;;;;;;;5032549;28;20032;-72
2023/05/13 09:04:05;;;;;;;3.80;1.98;;;;;;;;;;5033652;28;20034;-72
2023/05/13 09:06:32;;;;;;;3.85;2.42;;;;;;;;;;5033527;28;20021;-71
2023/05/13 09:08:58;;;;;;;7.30;2.33;;;;;;;;;;5032629;28;20018;-72
2023/05/13 09:11:25;;;;;;;8.70;2.60;;;;;;;;;;5033799;28;20037;-72
2023/05/13 09:13:57;;;;;;;3.53;2.38;;;;;;;;;;5032161;28;20032;-72
2023/05/13 09:16:24;;;;;;;5.25;2.63;;;;;;;;;;5033618;28;20033;-72
2023/05/13 09:18:55;;;;;;;3.35;2.30;;;;;;;;;;5031540;28;20026;-72
2023/05/13 09:21:22;;;;;;;3.80;2.80;;;;;;;;;;5031953;28;20032;-72
2023/05/13 09:23:48;;;;;;;2.40;2.20;;;;;;;;;;5033203;28;20395;-72
2023/05/13 09:26:34;;;;;;;5.57;3.10;;;;;;;;;;5033247;28;20116;-74
2023/05/13 09:29:19;;;;;;;3.55;2.50;;;;;;;;;;5032461;28;20436;-72
2023/05/13 09:31:47;;;;;;;2.72;2.50;;;;;;;;;;5033171;28;20506;-72
2023/05/13 09:34:14;;;;;;;4.72;2.63;;;;;;;;;;5033076;28;20459;-72
2023/05/13 09:36:40;;;;;;;3.33;2.28;;;;;;;;;;5032925;28;20422;-72
2023/05/13 09:39:06;;;;;;;5.60;2.67;;;27.80;32.50;;;;;;5032541;28;20022;-72
2023/05/13 09:41:33;;;;;;;3.72;2.55;;;;;;;;;;5032866;28;20560;-72
2023/05/13 09:44:01;;;;;;;3.85;2.17;;;27.30;32.60;;;;;;5032973;28;20026;-72
2023/05/13 09:46:27;;;;;;;7.45;2.50;;;;;;;;;;5032676;28;20022;-72
2023/05/13 09:48:57;;;;;;;5.43;2.70;;;;;;;;;;5032145;28;20104;-72
2023/05/13 09:51:27;;;;;;;4.38;2.90;;;;;;;;;;5033473;28;20084;-72
2023/05/13 09:53:54;;;;;;;6.30;3.23;;;;;;;;;;5031951;28;20049;-70
2023/05/13 09:56:22;;;;;;;3.95;3.00;;;;;;;;;;5033648;28;20112;-72
2023/05/13 09:58:51;;;;;;;3.58;2.90;;;;;;;;;;5033430;28;20036;-72
2023/05/13 10:01:18;;;;;;;6.68;3.00;;;;;;;;;;5036023;28;20116;-71
2023/05/13 10:03:45;;;;;;;2.22;2.03;;;;;;;;;;5035648;28;20108;-71
2023/05/13 10:06:11;;;;;;;3.33;2.65;;;;;;;;;;5032510;28;20399;-71
2023/05/13 10:08:38;;;;;;;5.10;2.78;;;;;;;;;;5034819;28;20025;-71
2023/05/13 10:11:06;;;;;;;3.72;2.80;;;;;;;;;;5033237;28;20029;-71
2023/05/13 10:13:32;;;;;;;4.53;2.70;;;;;;;;;;5032523;28;20021;-71
2023/05/13 10:15:59;;;;;;;5.28;2.80;;;;;;;;;;5032178;28;20467;-71
2023/05/13 10:18:25;;;;;;;4.88;2.90;;;;;;;;;;5031800;28;20480;-71
2023/05/13 10:20:54;;;;;;;3.63;2.50;;;;;;;;;;5032650;28;20025;-71
2023/05/13 10:23:20;;;;;;;3.60;2.25;;;;;;;;;;5032110;28;20352;-71
2023/05/13 10:25:47;;;;;;;4.95;2.50;;;;;;;;;;5031036;28;20021;-71
2023/05/13 10:28:13;;;;;;;3.33;2.35;;;;;;;;;;5030011;28;20040;-73
2023/05/13 10:30:40;;;;;;;3.75;2.45;;;;;;;;;;5032231;28;20028;-72
2023/05/13 10:33:06;;;;;;;5.40;2.65;;;;;;;;;;5032402;28;20036;-71
2023/05/13 10:35:36;;;;;;;4.10;2.55;;;;;;;;;;5032754;28;20037;-72
2023/05/13 10:38:02;;;;;;;2.97;2.55;;;;;;;;;;5031513;28;20025;-72
2023/05/13 10:40:40;;;;;;;3.88;2.50;;;;;;;;;;5032818;28;20041;-72
2023/05/13 10:43:20;;;;;;;3.83;2.17;;;;;;;;;;5032244;28;20040;-72
2023/05/13 10:45:50;;;;;;;3.40;2.38;;;;;;;;;;5032087;28;20376;-72
2023/05/13 10:48:17;;;;;;;4.03;2.38;;;;;;;;;;5032191;28;20017;-71
2023/05/13 10:51:06;;;;;;;5.15;2.70;;;;;;;;;;5032723;28;20037;-73
2023/05/13 10:53:43;;;;;;;3.83;2.63;;;;;;;;;;5033450;28;20041;-72
2023/05/13 10:56:09;;;;;;;4.03;2.20;;;;;;;;;;5033023;28;20191;-72
2023/05/13 10:58:38;;;;;;;3.03;2.40;;;;;;;;;;5031693;28;20044;-71
2023/05/13 11:01:13;;;;;;;5.07;2.13;;;;;;;;;;5032498;28;20519;-71
2023/05/13 11:03:39;;;;;;;4.82;2.35;;;;;;;;;;5031989;28;20021;-71
2023/05/13 11:06:17;;;;;;;4.97;2.75;;;;;;;;;;5031549;28;20472;-73
2023/05/13 11:08:44;;;;;;;4.63;2.28;;;;;;;;;;5030773;28;20017;-71
2023/05/13 11:11:22;;;;;;;5.38;2.47;;;;;;;;;;5031583;28;20074;-71
2023/05/13 11:13:51;;;;;;;5.68;3.03;;;;;;;;;;5031626;28;20056;-71
2023/05/13 11:16:17;;;;;;;6.22;2.63;;;;;;;;;;5031098;28;20108;-71
2023/05/13 11:18:43;;;;;;;4.68;2.50;;;;;;;;;;5030856;28;20100;-71
2023/05/13 11:21:09;;;;;;;5.65;3.50;;;;;;;;;;5031455;28;20021;-71
2023/05/13 11:23:50;;;;;;;3.83;2.47;;;;;;;;;;5031255;28;20029;-71
2023/05/13 11:26:17;;;;;;;3.00;2.38;;;;;;;;;;5029943;28;20014;-71
2023/05/13 11:29:03;;;;;;;2.90;2.53;;;;;;;;;;5030288;28;20079;-71
2023/05/13 11:31:41;;;;;;;3.63;2.58;;;;;;;;;;5031017;28;20391;-71
2023/05/13 11:34:08;;;;;;;4.38;2.58;;;;;;;;;;5029743;28;20403;-71
2023/05/13 11:36:36;;;;;;;4.53;2.10;;;;;;;;;;5031045;28;20565;-71
2023/05/13 11:39:15;;;;;;;4.40;2.58;;;;;;;;;;5028979;28;20076;-71
2023/05/13 11:41:42;;;;;;;5.18;2.03;;;;;;;;;;5030838;28;20483;-71
2023/05/13 11:44:10;;;;;;;4.22;2.22;;;;;;;;;;5031134;28;20025;-71
2023/05/13 11:46:36;;;;;;;2.35;2.15;;;;;;;;;;5030901;28;20036;-71
2023/05/13 11:49:02;;;;;;;2.20;1.83;;;;;;;;;;5030156;28;20037;-71
2023/05/13 11:51:30;;;;;;;4.43;2.28;;;;;;;;;;5029550;28;20112;-72
2023/05/13 11:54:00;;;;;;;2.55;1.80;;;;;;;;;;5031021;28;20039;-72
2023/05/13 11:56:27;;;;;;;3.80;1.92;;;;;;;;;;5030877;28;20475;-72
2023/05/13 11:58:53;;;;;;;3.85;1.80;;;;;;;;;;5030495;28;20083;-72
2023/05/13 12:01:20;;;;;;;2.35;2.00;;;;;;;;;;5028312;28;20029;-71
2023/05/13 12:03:46;;;;;;;2.78;1.92;;;;;;;;;;5039211;28;20040;-72
2023/05/13 12:06:12;;;;;;;5.03;2.60;;;;;;;;;;5028981;28;20448;-72
2023/05/13 12:08:45;;;;;;;2.50;2.08;;;;;;;;;;5029580;28;20395;-75
2023/05/13 12:11:12;;;;;;;3.17;2.42;;;;;;;;;;5031067;28;20053;-75
2023/05/13 12:13:41;;;;;;;2.17;1.98;;;;;;;;;;5051807;28;20395;-74
2023/05/13 12:16:08;;;;;;;3.60;2.13;;;;;;;;;;5050415;28;20024;-74
2023/05/13 12:18:34;;;;;;;3.50;2.15;;;;;;;;;;5048085;28;20055;-74
2023/05/13 12:21:00;;;;;;;2.60;1.77;;;;;;;;;;5050263;28;20782;-75
2023/05/13 12:23:26;;;;;;;2.08;1.77;;;;;;;;;;5050154;28;20029;-74
2023/05/13 12:25:53;;;;;;;6.20;2.17;;;;;;;;;;5050231;28;20056;-75
2023/05/13 12:28:21;;;;;;;2.88;1.88;;;;;;;;;;5050135;28;20438;-75
2023/05/13 12:30:52;;;;;;;3.30;2.75;;;;;;;;;;5053670;28;20112;-75
2023/05/13 12:33:23;;;;;;;2.42;2.08;;;;;;;;;;5053398;28;20025;-75
2023/05/13 12:35:51;;;;;;;7.60;1.80;;;;;;;;;;5053648;28;20407;-75
2023/05/13 12:38:22;;;;;;;6.40;2.90;;;;;;;;;;5053338;28;20025;-75
2023/05/13 12:40:49;;;;;;;4.50;3.15;;;;;;;;;;5053809;28;20075;-75
2023/05/13 12:43:15;;;;;;;6.07;2.97;;;;;;;;;;5053597;28;20040;-75
2023/05/13 12:45:42;;;;;;;3.97;2.63;;;;;;;;;;5055445;28;20075;-75
2023/05/13 12:48:08;;;;;;;3.58;2.13;;;;;;;;;;5053160;28;20487;-74
2023/05/13 12:50:34;;;;;;;2.40;1.70;;;;;;;;;;5054105;28;20032;-74
2023/05/13 12:53:01;;;;;;;7.70;4.20;;;;;;;;;;5053821;28;20410;-75
2023/05/13 12:55:27;;;;;;;2.47;2.03;;;;;;;;;;5053786;28;20608;-74
2023/05/13 12:57:58;;;;;;;2.60;1.70;;;;;;;;;;5068328;28;20061;-74
2023/05/13 13:00:25;;;;;;;3.78;2.30;;;;;;;;;;5053859;28;20491;-75
2023/05/13 13:02:52;;;;;;;3.55;2.10;;;;;;;;;;5053664;28;20036;-75
2023/05/13 13:05:19;;;;;;;5.38;2.85;;;;;;;;;;5052187;28;20483;-76
2023/05/13 13:07:46;;;;;;;2.50;2.08;;;;;;;;;;5052610;28;20025;-76
2023/05/13 13:10:12;;;;;;;2.65;2.22;;;;;;;;;;5053610;28;20032;-75
2023/05/13 13:12:38;;;;;;;5.07;1.92;;;;;;;;;;5053245;28;20025;-75
2023/05/13 13:15:05;;;;;;;5.70;1.95;;;;;;;;;;5053282;28;20033;-75
2023/05/13 13:17:31;;;;;;;3.75;2.55;;;;;;;;;;5052572;28;20032;-75
2023/05/13 13:19:57;;;;;;;3.25;2.40;;;;;;;;;;5053294;28;20029;-76
2023/05/13 13:22:23;;;;;;;3.25;2.00;;;;;;;;;;5053055;28;20518;-76
2023/05/13 13:24:49;;;;;;;2.95;2.08;;;;;;;;;;5068585;28;20025;-76
2023/05/13 13:27:15;;;;;;;4.25;2.35;;;;;;;;;;5066469;28;20036;-74
2023/05/13 13:29:41;;;;;;;4.47;2.20;;;;;;;;;;5052434;28;20434;-76
2023/05/13 13:32:07;;;;;;;3.80;2.90;;;;;;;;;;5052534;28;20033;-75
2023/05/13 13:34:33;;;;;;;4.95;2.58;;;;;;;;;;5052338;28;20475;-75
2023/05/13 13:36:59;;;;;;;4.00;2.38;;;;;;;;;;5051941;28;20029;-75
2023/05/13 13:39:25;;;;;;;2.60;2.13;;;;;;;;;;5051940;28;20100;-75
2023/05/13 13:41:51;;;;;;;3.72;2.35;;;;;;;;;;5052611;28;20403;-75
2023/05/13 13:44:17;;;;;;;8.38;6.07;;;;;;;;;;5052857;28;20111;-75
2023/05/13 13:46:43;;;;;;;5.78;2.28;;;;;;;;;;5068313;28;20017;-76
2023/05/13 13:49:09;;;;;;;6.88;2.70;;;;;;;;;;5050295;28;20464;-75
2023/05/13 13:51:35;;;;;;;4.88;2.90;;;;;;;;;;5051894;28;20113;-75
2023/05/13 13:54:08;;;;;;;4.68;2.40;;;;;;;;;;5050717;28;20554;-76
2023/05/13 13:56:38;;;;;;;3.90;2.53;;;;;;;;;;5051433;28;20449;-76
2023/05/13 13:59:04;;;;;;;5.47;2.55;;;;;;;;;;5051503;28;20394;-76
2023/05/13 14:01:30;;;;;;;7.13;2.78;;;;;;;;;;5052222;28;20159;-75
2023/05/13 14:04:15;;;;;;;2.83;2.30;;;;;;;;;;5052217;28;20107;-75
2023/05/13 14:06:41;;;;;;;2.58;2.03;;;;;;;;;;5052580;28;20454;-76
2023/05/13 14:09:09;;;;;;;3.42;2.30;;;;;;;;;;5049743;28;20108;-76
2023/05/13 14:11:35;;;;;;;2.25;2.05;;;;;;;;;;5053652;28;20047;-77
2023/05/13 14:14:01;;;;;;;3.13;2.55;;;;;;;;;;5053638;28;20031;-76
2023/05/13 14:16:27;;;;;;;2.35;2.15;;;;;;;;;;5053479;28;20557;-76
2023/05/13 14:18:53;;;;;;;5.28;2.15;;;;;;;;;;5068703;28;20074;-76
2023/05/13 14:21:19;;;;;;;3.28;2.72;;;;;;;;;;5054832;28;20032;-76
2023/05/13 14:23:45;;;;;;;2.60;2.30;;;;;;;;;;5051682;28;20092;-76
2023/05/13 14:26:14;;;;;;;2.50;2.30;;;;;;;;;;5051638;28;20124;-75
2023/05/13 14:28:40;;;;;;;2.60;2.15;;;;;;;;;;5050542;28;20047;-75
2023/05/13 14:31:06;;;;;;;4.20;2.42;;;;;;;;;;5050721;28;20060;-75
2023/05/13 14:33:32;;;;;;;3.10;2.22;;;;;;;;;;5050837;28;20487;-75